Time;durP1;ratioP1;P1;durP2;ratioP2;P2;SDS_P1;SDS_P2;PMS_P1;PMS_P2;Temp;Humidity;BMP_temperature;BMP_pressure;BME280_temperature;BME280_humidity;BME280_pressure;Samples;Min_cycle;Max_cycle;Signal;HPM_P1;HPM_P2
2022/01/14 00:01:17;;;;;;;74.05;35.88;;;;;;;;;;5038333;28;20071;-74
2022/01/14 00:03:43;;;;;;;74.50;38.53;;;;;;;;;;5022750;28;20315;-72
2022/01/14 00:06:10;;;;;;;75.47;37.80;;;;;;;;;;5039378;28;20016;-72
2022/01/14 00:08:36;;;;;;;79.95;38.90;;;;;;;;;;5038856;28;20050;-71
2022/01/14 00:11:03;;;;;;;84.03;43.40;;;;;;;;;;5038927;28;20049;-72
2022/01/14 00:13:54;;;;;;;87.72;41.97;;;;;;;;;;5022527;28;20032;-74
2022/01/14 00:16:21;;;;;;;93.18;45.17;;;;;;;;;;5038847;28;20017;-74
2022/01/14 00:18:47;;;;;;;82.43;41.70;;;;;;;;;;5038418;28;20027;-74
2022/01/14 00:21:13;;;;;;;80.97;42.10;;;;;;;;;;5056922;28;20501;-74
2022/01/14 00:23:42;;;;;;;79.07;45.53;;;;;;;;;;5056264;28;20056;-74
2022/01/14 00:31:43;;;;;;;91.15;44.30;;;;;;;;;;5059917;28;20533;-73
2022/01/14 00:34:11;;;;;;;87.70;43.70;;;;;;;;;;5060381;28;20440;-73
2022/01/14 00:36:37;;;;;;;92.78;43.88;;;;;;;;;;5060405;28;20031;-73
2022/01/14 00:39:03;;;;;;;79.05;40.20;;;;;;;;;;5025836;28;20066;-73
2022/01/14 00:41:29;;;;;;;78.97;41.83;;;;;;;;;;5060542;28;20024;-73
2022/01/14 00:44:01;;;;;;;79.93;43.95;;;;;;;;;;5059686;28;20380;-74
2022/01/14 00:46:27;;;;;;;85.25;46.15;;;;;;;;;;5025775;28;20120;-73
2022/01/14 00:48:53;;;;;;;73.50;36.60;;;;;;;;;;5042416;28;20319;-73
2022/01/14 00:51:19;;;;;;;69.43;33.38;;;;;;;;;;5042335;28;20025;-73
2022/01/14 00:53:45;;;;;;;64.13;34.50;;;;;;;;;;5059941;28;20029;-74
2022/01/14 00:56:45;;;;;;;69.18;34.28;;;;;;;;;;5059945;28;20024;-74
2022/01/14 00:59:16;;;;;;;58.88;32.00;;;;;;;;;;5042079;28;20055;-74
2022/01/14 01:01:48;;;;;;;68.18;31.77;;;;;;;;;;5059622;28;20056;-74
2022/01/14 01:04:16;;;;;;;56.38;29.65;;;;;;;;;;5041271;28;20021;-74
2022/01/14 01:06:42;;;;;;;56.58;29.30;;;;;;;;;;5059541;28;20021;-74
2022/01/14 01:09:12;;;;;;;49.30;30.25;;;;;;;;;;5025622;28;20446;-73
2022/01/14 01:11:43;;;;;;;53.08;28.92;;;;;;;;;;5057525;28;20319;-74
2022/01/14 01:14:14;;;;;;;52.60;25.38;;;;;;;;;;5041599;28;20037;-74
2022/01/14 01:16:43;;;;;;;49.95;26.05;;;;;;;;;;5024835;28;20025;-75
2022/01/14 01:19:11;;;;;;;51.53;28.35;;;;;;;;;;5041258;28;20338;-74
2022/01/14 01:21:41;;;;;;;52.97;26.08;;;;;;;;;;5024896;28;20410;-75
2022/01/14 01:24:22;;;;;;;47.60;24.77;;;;;;;;;;5022677;28;20021;-74
2022/01/14 01:26:50;;;;;;;41.13;23.65;;;;;;;;;;5056839;28;20415;-74
2022/01/14 01:29:43;;;;;;;51.00;24.90;;;;;;;;;;5041709;28;20025;-73
2022/01/14 01:32:09;;;;;;;39.75;23.02;;;;;;;;;;5040583;28;20102;-74
2022/01/14 01:34:36;;;;;;;46.97;22.17;;;;;;;;;;5039978;28;20064;-73
2022/01/14 01:37:06;;;;;;;34.78;20.73;;;;;;;;;;5057837;28;20029;-75
2022/01/14 01:39:36;;;;;;;42.70;19.58;;;;;;;;;;5039866;28;20482;-74
2022/01/14 01:42:09;;;;;;;43.00;20.92;;;;;;;;;;5058997;28;20031;-75
2022/01/14 01:44:37;;;;;;;39.78;21.10;;;;;;;;;;5040725;28;20021;-74
2022/01/14 01:47:04;;;;;;;38.47;18.10;;;;;;;;;;5040530;28;20028;-74
2022/01/14 01:49:32;;;;;;;40.03;17.92;;;;;;;;;;5057900;28;20052;-73
2022/01/14 01:51:58;;;;;;;31.58;18.67;;;;;;;;;;5057358;28;20441;-73
2022/01/14 01:54:25;;;;;;;39.75;18.00;;;;;;;;;;5040563;28;20037;-74
2022/01/14 01:56:51;;;;;;;35.33;18.10;;;;;;;;;;5037852;28;20016;-73
2022/01/14 01:59:17;;;;;;;31.65;17.83;;;;;;;;;;5040960;28;20116;-73
2022/01/14 02:01:43;;;;;;;40.95;18.60;;;;;;;;;;5039401;28;20029;-74
2022/01/14 02:04:09;;;;;;;40.17;20.45;;;;;;;;;;5057306;28;20014;-74
2022/01/14 02:06:40;;;;;;;34.95;19.80;;;;;;;;;;5040084;28;20028;-75
2022/01/14 02:09:07;;;;;;;29.30;17.55;;;;;;;;;;5057885;28;20025;-76
2022/01/14 02:11:33;;;;;;;34.88;18.23;;;;;;;;;;5057366;28;20025;-74
2022/01/14 02:14:04;;;;;;;41.88;19.13;;;;;;;;;;5040274;28;20453;-74
2022/01/14 02:16:36;;;;;;;39.10;17.80;;;;;;;;;;5022835;28;20024;-74
2022/01/14 02:19:18;;;;;;;34.25;18.02;;;;;;;;;;5040239;28;20028;-73
2022/01/14 02:24:54;;;;;;;40.80;20.67;;;;;;;;;;5058062;28;20029;-73
2022/01/14 02:27:19;;;;;;;40.88;20.33;;;;;;;;;;5057131;28;20017;-74
2022/01/14 02:29:50;;;;;;;33.63;19.10;;;;;;;;;;5057747;28;20426;-74
2022/01/14 02:32:23;;;;;;;43.65;20.63;;;;;;;;;;5021652;28;20031;-75
2022/01/14 02:34:51;;;;;;;30.33;16.73;;;;;;;;;;5021604;28;20036;-74
2022/01/14 02:37:20;;;;;;;32.25;14.55;;;;;;;;;;5021746;28;20021;-74
2022/01/14 02:39:46;;;;;;;38.30;16.42;;;;;;;;;;5039394;28;20060;-75
2022/01/14 02:42:16;;;;;;;32.00;16.58;;;;;;;;;;5019291;28;20017;-76
2022/01/14 02:44:42;;;;;;;38.95;16.80;;;;;;;;;;5038485;28;20075;-73
2022/01/14 02:47:09;;;;;;;35.47;17.17;;;;;;;;;;5055117;28;20017;-75
2022/01/14 02:49:37;;;;;;;26.95;15.82;;;;;;;;;;5036989;28;20334;-75
2022/01/14 02:52:08;;;;;;;33.92;17.15;;;;;;;;;;5034205;28;20021;-74
2022/01/14 02:55:02;;;;;;;36.00;20.45;;;;;;;;;;5021011;28;20041;-74
2022/01/14 02:57:36;;;;;;;27.25;16.60;;;;;;;;;;5035311;28;20318;-74
2022/01/14 03:00:05;;;;;;;36.85;18.23;;;;;;;;;;5036155;28;20074;-74
2022/01/14 03:02:33;;;;;;;44.22;18.23;;;;;;;;;;5055336;28;20055;-73
2022/01/14 03:05:03;;;;;;;33.10;18.40;;;;;;;;;;5053477;28;20025;-75
2022/01/14 03:07:33;;;;;;;31.65;17.88;;;;;;;;;;5036516;28;20119;-74
2022/01/14 03:10:04;;;;;;;54.20;21.25;;;;;;;;;;5020956;28;20052;-75
2022/01/14 03:12:36;;;;;;;39.38;17.85;;;;;;;;;;5052722;28;20070;-75
2022/01/14 03:15:08;;;;;;;41.78;17.63;;;;;;;;;;5020875;28;20083;-75
2022/01/14 03:17:39;;;;;;;29.50;14.80;;;;;;;;;;5019098;28;20029;-74
2022/01/14 03:20:07;;;;;;;29.90;15.73;;;;;;;;;;5036551;28;20021;-74
2022/01/14 03:22:36;;;;;;;40.47;18.85;;;;;;;;;;5037086;28;20021;-74
2022/01/14 03:27:52;;;;;;;36.20;17.00;;;;;;;;;;5054720;28;20415;-75
2022/01/14 03:30:20;;;;;;;40.95;18.88;;;;;;;;;;5036133;28;20310;-74
2022/01/14 03:32:50;;;;;;;29.98;17.55;;;;;;;;;;5036737;28;20028;-75
2022/01/14 03:35:20;;;;;;;32.78;18.33;;;;;;;;;;5036084;28;20023;-73
2022/01/14 03:37:46;;;;;;;40.05;20.00;;;;;;;;;;5056167;28;20051;-74
2022/01/14 03:40:13;;;;;;;36.00;21.45;;;;;;;;;;5055203;28;20043;-73
2022/01/14 03:42:40;;;;;;;31.50;16.90;;;;;;;;;;5037007;28;20040;-74
2022/01/14 03:45:09;;;;;;;30.30;16.98;;;;;;;;;;5020058;28;20450;-73
2022/01/14 03:47:37;;;;;;;32.47;18.05;;;;;;;;;;5019256;28;20052;-74
2022/01/14 03:50:04;;;;;;;39.53;17.00;;;;;;;;;;5036049;28;20107;-73
2022/01/14 03:52:31;;;;;;;36.90;18.13;;;;;;;;;;5053432;28;20025;-73
2022/01/14 03:54:57;;;;;;;31.98;15.68;;;;;;;;;;5019441;28;20152;-73
2022/01/14 03:57:23;;;;;;;28.90;16.98;;;;;;;;;;5053769;28;20017;-73
2022/01/14 03:59:49;;;;;;;30.70;17.75;;;;;;;;;;5053560;28;20028;-74
2022/01/14 04:02:15;;;;;;;35.33;17.00;;;;;;;;;;5022647;28;20025;-73
2022/01/14 04:04:42;;;;;;;26.13;14.40;;;;;;;;;;5039500;28;20024;-73
2022/01/14 04:07:08;;;;;;;30.98;14.98;;;;;;;;;;5022850;28;20091;-73
2022/01/14 04:09:36;;;;;;;37.53;17.42;;;;;;;;;;5039578;28;20021;-73
2022/01/14 04:12:19;;;;;;;32.45;17.33;;;;;;;;;;5024589;28;20103;-72
2022/01/14 04:17:25;;;;;;;32.13;16.77;;;;;;;;;;5057649;28;20009;-72
2022/01/14 04:19:51;;;;;;;41.13;19.50;;;;;;;;;;5038910;28;20071;-74
2022/01/14 04:22:18;;;;;;;37.83;17.42;;;;;;;;;;5040124;28;20086;-75
2022/01/14 04:24:46;;;;;;;50.47;18.77;;;;;;;;;;5040472;28;20021;-74
2022/01/14 04:27:12;;;;;;;38.30;19.30;;;;;;;;;;5040642;28;20306;-73
2022/01/14 04:29:38;;;;;;;47.15;18.58;;;;;;;;;;5040538;28;20025;-72
2022/01/14 04:32:05;;;;;;;42.60;19.60;;;;;;;;;;5058079;28;20100;-74
2022/01/14 04:34:32;;;;;;;32.40;14.10;;;;;;;;;;5040280;28;20394;-74
2022/01/14 04:36:58;;;;;;;44.60;18.92;;;;;;;;;;5058557;28;20093;-71
2022/01/14 04:39:24;;;;;;;41.78;17.60;;;;;;;;;;5023730;28;20025;-74
2022/01/14 04:41:50;;;;;;;32.20;15.77;;;;;;;;;;5024448;28;20021;-74
2022/01/14 04:44:19;;;;;;;35.78;17.02;;;;;;;;;;5057875;28;20020;-74
2022/01/14 04:47:01;;;;;;;32.75;15.05;;;;;;;;;;5022993;28;20343;-74
2022/01/14 04:49:36;;;;;;;43.25;16.13;;;;;;;;;;5022759;28;20122;-75
2022/01/14 04:52:02;;;;;;;30.70;16.42;;;;;;;;;;5021919;28;20025;-73
2022/01/14 04:54:29;;;;;;;29.10;17.55;;;;;;;;;;5055885;28;20109;-74
2022/01/14 04:56:55;;;;;;;31.95;15.52;;;;;;;;;;5021469;28;20094;-74
2022/01/14 04:59:24;;;;;;;43.28;16.95;;;;;;;;;;4990183;28;20580;-75
2022/01/14 05:02:06;;;;;;;34.95;16.00;;;;;;;;;;5010558;28;20032;-74
2022/01/14 05:04:33;;;;;;;41.72;17.60;;;;;;;;;;5022814;28;20021;-73
2022/01/14 05:07:02;;;;;;;38.17;15.43;;;;;;;;;;5022250;28;20150;-73
2022/01/14 05:09:35;;;;;;;32.83;16.35;;;;;;;;;;5056528;28;20433;-73
2022/01/14 05:12:07;;;;;;;40.90;18.45;;;;;;;;;;5023008;28;20107;-74
2022/01/14 05:14:38;;;;;;;40.00;16.23;;;;;;;;;;5038678;28;20033;-74
2022/01/14 05:17:11;;;;;;;29.00;14.98;;;;;;;;;;5023580;28;20021;-73
2022/01/14 05:19:48;;;;;;;26.27;14.88;;;;;;;;;;5034053;28;20087;-75
2022/01/14 05:22:18;;;;;;;25.88;14.07;;;;;;;;;;5018265;28;20052;-74
2022/01/14 05:24:57;;;;;;;39.38;14.88;;;;;;;;;;5054506;28;20074;-74
2022/01/14 05:27:29;;;;;;;24.83;13.88;;;;;;;;;;5041077;23;20134;-75
2022/01/14 05:30:02;;;;;;;35.08;15.07;;;;;;;;;;5040414;28;20029;-74
2022/01/14 05:32:31;;;;;;;36.42;15.55;;;;;;;;;;5037949;28;20029;-75
2022/01/14 05:35:10;;;;;;;36.60;15.18;;;;;;;;;;5019361;28;20030;-74
2022/01/14 05:37:42;;;;;;;38.13;17.00;;;;;;;;;;5022189;28;20028;-73
2022/01/14 05:40:13;;;;;;;28.45;13.32;;;;;;;;;;5021357;28;20493;-71
2022/01/14 05:42:43;;;;;;;27.70;14.23;;;;;;;;;;5020670;28;20020;-75
2022/01/14 05:45:19;;;;;;;33.00;16.50;;;;;;;;;;5022985;28;20025;-74
2022/01/14 05:47:48;;;;;;;28.15;16.88;;;;;;;;;;5037437;28;20016;-75
2022/01/14 05:50:25;;;;;;;42.25;17.20;;;;;;;;;;5034166;28;20092;-75
2022/01/14 05:52:51;;;;;;;29.85;13.73;;;;;;;;;;5038830;28;20024;-73
2022/01/14 05:55:18;;;;;;;30.95;15.63;;;;;;;;;;5021117;28;20135;-74
2022/01/14 05:57:45;;;;;;;25.17;13.85;;;;;;;;;;5037195;28;20116;-73
2022/01/14 06:00:13;;;;;;;30.38;14.70;;;;;;;;;;5037375;28;20020;-74
2022/01/14 06:02:42;;;;;;;47.10;19.55;;;;;;;;;;5037476;28;20009;-74
2022/01/14 06:05:09;;;;;;;36.65;16.40;;;;;;;;;;5020586;28;20067;-72
2022/01/14 06:07:41;;;;;;;43.17;18.42;;;;;;;;;;5021904;28;20116;-72
2022/01/14 06:10:10;;;;;;;31.67;16.77;;;;;;;;;;5037183;28;20369;-73
2022/01/14 06:12:42;;;;;;;51.58;15.95;;;;;;;;;;5034407;28;20009;-73
2022/01/14 06:15:17;;;;;;;27.13;12.68;;;;;;;;;;5038556;28;20037;-73
2022/01/14 06:17:58;;;;;;;38.53;13.55;;;;;;;;;;5021085;28;20020;-73
2022/01/14 06:20:27;;;;;;;22.85;12.25;;;;;;;;;;5017344;28;20020;-74
2022/01/14 06:23:05;;;;;;;34.63;15.90;;;;;;;;;;5054474;28;20021;-73
2022/01/14 06:25:37;;;;;;;29.02;14.32;;;;;;;;;;5022662;28;20024;-72
2022/01/14 06:28:12;;;;;;;28.40;15.15;;;;;;;;;;5019751;28;20028;-73
2022/01/14 06:30:42;;;;;;;32.00;17.17;;;;;;;;;;5036663;28;20054;-73
2022/01/14 06:33:16;;;;;;;35.17;15.25;;;;;;;;;;5038868;28;20036;-72
2022/01/14 06:35:42;;;;;;;27.13;14.80;;;;;;;;;;5054988;28;20021;-72
2022/01/14 06:38:10;;;;;;;40.67;14.73;;;;;;;;;;5040757;28;20031;-73
2022/01/14 06:40:39;;;;;;;33.25;17.25;;;;;;;;;;5056978;28;20435;-73
2022/01/14 06:43:15;;;;;;;26.98;15.05;;;;;;;;;;5037939;28;20013;-75
2022/01/14 06:45:52;;;;;;;34.50;15.88;;;;;;;;;;5021433;28;20403;-73
2022/01/14 06:48:24;;;;;;;32.33;15.07;;;;;;;;;;5021049;28;20112;-73
2022/01/14 06:50:51;;;;;;;29.42;14.93;;;;;;;;;;5036045;28;20088;-72
2022/01/14 06:53:19;;;;;;;31.45;15.55;;;;;;;;;;5036235;28;20064;-74
2022/01/14 06:55:49;;;;;;;31.00;14.02;;;;;;;;;;5020417;28;20091;-72
2022/01/14 06:58:31;;;;;;;46.50;12.75;;;;;;;;;;5027160;28;20530;-74
2022/01/14 07:00:58;;;;;;;;;;;;;;;;;;5038274;28;20387;-73
2022/01/14 07:03:33;;;;;;;29.98;13.30;;;;;;;;;;5050195;28;19912;-72
2022/01/14 07:06:01;;;;;;;28.25;13.43;;;;;;;;;;5055002;28;20024;-72
2022/01/14 07:08:33;;;;;;;29.20;14.85;;;;;;;;;;5021983;28;20143;-72
2022/01/14 07:10:59;;;;;;;26.52;14.15;;;;;;;;;;5037572;28;20158;-72
2022/01/14 07:13:28;;;;;;;57.13;17.90;;;;;;;;;;5055649;28;20124;-73
2022/01/14 07:15:56;;;;;;;46.08;15.57;;;;;;;;;;5038602;28;20104;-72
2022/01/14 07:18:23;;;;;;;34.33;16.65;;;;;;;;;;5022321;28;20021;-72
2022/01/14 07:20:49;;;;;;;29.63;14.90;;;;;;;;;;5021338;28;20115;-73
2022/01/14 07:23:16;;;;;;;28.90;14.68;;;;;;;;;;5036737;28;20402;-73
2022/01/14 07:25:42;;;;;;;25.30;14.20;;;;;;;;;;5021246;28;20335;-73
2022/01/14 07:28:08;;;;;;;29.90;16.30;;;;;;;;;;5035882;28;20029;-73
2022/01/14 07:30:34;;;;;;;28.38;13.45;;;;;;;;;;5036851;28;20024;-72
2022/01/14 07:33:02;;;;;;;31.60;13.05;;;;;;;;;;5054673;28;20017;-72
2022/01/14 07:35:33;;;;;;;23.00;10.85;;;;;;;;;;5036537;28;20074;-73
2022/01/14 07:37:59;;;;;;;24.52;10.70;;;;;;;;;;5020265;28;20028;-72
2022/01/14 07:40:26;;;;;;;24.38;9.38;;;;;;;;;;5053286;28;20108;-73
2022/01/14 07:42:55;;;;;;;30.35;11.02;;;;;;;;;;5051358;28;20431;-73
2022/01/14 07:45:24;;;;;;;30.25;11.85;;;;;;;;;;5014659;28;20618;-72
2022/01/14 07:47:50;;;;;;;32.55;12.70;;;;;;;;;;5053361;28;20067;-74
2022/01/14 07:50:18;;;;;;;19.60;7.85;;;;;;;;;;5035672;28;20050;-73
2022/01/14 07:52:44;;;;;;;21.15;9.27;;;;;;;;;;5034910;28;20078;-73
2022/01/14 07:55:14;;;;;;;13.90;7.32;;;;;;;;;;5019999;28;20033;-74
2022/01/14 07:57:44;;;;;;;21.23;8.30;;;;;;;;;;5037323;28;20434;-74
2022/01/14 08:00:16;;;;;;;14.73;6.10;;;;;;;;;;5038017;28;20031;-74
2022/01/14 08:02:44;;;;;;;9.00;5.13;;;;;;;;;;5038299;28;20039;-74
2022/01/14 08:05:10;;;;;;;9.73;5.00;;;;;;;;;;5037142;28;20017;-73
2022/01/14 08:07:45;;;;;;;19.48;5.10;;;;;;;;;;5036449;28;20342;-74
2022/01/14 08:10:17;;;;;;;8.90;4.93;;;;;;;;;;5053904;28;20342;-76
2022/01/14 08:12:58;;;;;;;15.07;6.72;;;;;;;;;;5037133;28;20021;-73
2022/01/14 08:15:35;;;;;;;21.65;5.93;;;;;;;;;;5037823;28;20095;-73
2022/01/14 08:18:02;;;;;;;10.45;5.57;;;;;;;;;;5054436;28;20028;-73
2022/01/14 08:20:29;;;;;;;14.52;7.97;;;;;;;;;;5021886;28;20025;-73
2022/01/14 08:22:58;;;;;;;14.52;6.80;;;;;;;;;;5036503;28;20024;-75
2022/01/14 08:25:28;;;;;;;23.27;10.20;;;;;;;;;;5021647;23;20029;-75
2022/01/14 08:28:17;;;;;;;12.88;5.72;;;;;;;;;;5037921;28;20060;-74
2022/01/14 08:30:44;;;;;;;13.68;5.05;;;;;;;;;;5056214;28;20057;-75
2022/01/14 08:35:53;;;;;;;13.77;5.88;;;;;;;;;;5032032;28;20395;-75
2022/01/14 08:38:31;;;;;;;17.40;4.72;;;;;;;;;;5033170;28;20022;-74
2022/01/14 08:41:04;;;;;;;16.85;7.22;;;;;;;;;;5014041;28;20025;-74
2022/01/14 08:43:34;;;;;;;17.55;6.20;;;;;;;;;;5001917;28;20072;-75
2022/01/14 08:46:03;;;;;;;11.68;5.78;;;;;;;;;;5011809;28;20046;-73
2022/01/14 08:48:41;;;;;;;10.10;6.40;;;;;;;;;;5001204;28;20037;-76
2022/01/14 08:51:27;;;;;;;15.05;6.55;;;;;;;;;;5017597;28;20029;-73
2022/01/14 08:54:04;;;;;;;12.93;5.90;;;;;;;;;;4987387;28;20168;-74
2022/01/14 08:59:18;;;;;;;20.42;5.15;;;;;;;;;;5055548;28;20049;-72
2022/01/14 09:01:46;;;;;;;10.65;6.20;;;;;;;;;;5024644;28;20411;-71
2022/01/14 09:04:13;;;;;;;13.77;6.82;;;;;;;;;;5040563;28;20017;-72
2022/01/14 09:06:39;;;;;;;11.85;5.63;;;;;;;;;;5041161;28;20044;-73
2022/01/14 09:09:08;;;;;;;13.48;5.22;;;;;;;;;;5053531;28;20016;-74
2022/01/14 09:11:42;;;;;;;10.88;6.07;;;;;;;;;;5060644;22;20119;-72
2022/01/14 09:14:09;;;;;;;12.25;4.85;;;;;;;;;;5037575;28;20047;-73
2022/01/14 09:16:35;;;;;;;18.45;6.95;;;;;;;;;;5022409;28;20032;-71
2022/01/14 09:19:03;;;;;;;13.40;5.40;;;;;;;;;;5023299;28;20028;-72
2022/01/14 09:21:45;;;;;;;22.50;7.63;;;;;;;;;;5039841;28;20377;-74
2022/01/14 09:24:12;;;;;;;11.23;6.40;;;;;;;;;;5057750;28;20461;-71
2022/01/14 09:26:39;;;;;;;10.93;5.85;;;;;;;;;;5022700;28;20436;-72
2022/01/14 09:31:51;;;;;;;19.30;9.73;;;;;;;;;;5035376;28;20064;-72
2022/01/14 09:34:20;;;;;;;15.95;7.15;;;;;;;;;;5019596;28;20033;-74
2022/01/14 09:36:46;;;;;;;8.43;4.88;;;;;;;;;;5021382;28;20029;-71
2022/01/14 09:39:13;;;;;;;25.83;7.57;;;;;;;;;;5038729;28;20022;-72
2022/01/14 09:41:40;;;;;;;12.57;5.70;;;;;;;;;;5020262;28;20017;-73
2022/01/14 09:44:08;;;;;;;8.82;4.95;;;;;;;;;;5042424;22;20384;-72
2022/01/14 09:46:37;;;;;;;12.23;6.53;;;;;;;;;;5022244;23;20032;-72
2022/01/14 09:49:05;;;;;;;14.73;6.18;;;;;;;;;;5040351;28;20299;-73
2022/01/14 09:51:33;;;;;;;18.55;6.20;;;;;;;;;;5036949;28;20091;-72
2022/01/14 09:54:06;;;;;;;11.57;7.03;;;;;;;;;;5040367;28;20060;-72
2022/01/14 09:56:54;;;;;;;12.32;5.80;;;;;;;;;;5057020;28;20381;-74
2022/01/14 09:59:22;;;;;;;17.70;7.95;;;;;;;;;;5023401;28;20025;-72
2022/01/14 10:04:41;;;;;;;12.95;7.25;;;;;;;;;;5034575;28;20448;-73
2022/01/14 10:07:07;;;;;;;13.68;6.68;;;;;;;;;;5019971;23;20052;-73
2022/01/14 10:12:16;;;;;;;14.48;6.28;;;;;;;;;;5030623;28;20320;-73
2022/01/14 10:14:53;;;;;;;14.30;6.70;;;;;;;;;;5017309;28;20029;-72
2022/01/14 10:17:19;;;;;;;16.38;6.75;;;;;;;;;;5020421;28;20434;-72
2022/01/14 10:19:46;;;;;;;31.80;10.13;;;;;;;;;;5037854;28;20056;-73
2022/01/14 10:22:29;;;;;;;32.50;9.43;;;;;;;;;;5020627;28;20026;-73
2022/01/14 10:24:56;;;;;;;16.20;8.90;;;;;;;;;;4997578;28;20025;-74
2022/01/14 10:27:43;;;;;;;20.25;8.43;;;;;;;;;;5004502;28;20021;-73
2022/01/14 10:30:09;;;;;;;27.88;9.57;;;;;;;;;;5020455;28;20342;-73
2022/01/14 10:32:37;;;;;;;20.20;9.73;;;;;;;;;;5034841;28;20112;-74
2022/01/14 10:35:08;;;;;;;19.35;7.90;;;;;;;;;;5020716;28;20064;-72
2022/01/14 10:37:36;;;;;;;;;;;;;;;;;;5015796;28;20280;-74
2022/01/14 10:40:13;;;;;;;24.55;8.88;;;;;;;;;;5000949;28;19905;-73
2022/01/14 10:43:03;;;;;;;24.23;9.35;;;;;;;;;;4994076;28;20120;-73
2022/01/14 10:45:30;;;;;;;40.83;13.25;;;;;;;;;;5002128;28;20080;-72
2022/01/14 10:48:03;;;;;;;29.70;11.65;;;;;;;;;;5037625;28;20115;-72
2022/01/14 10:50:33;;;;;;;28.67;11.02;;;;;;;;;;5020011;28;20021;-73
2022/01/14 10:53:01;;;;;;;32.03;14.50;;;;;;;;;;5003034;28;20021;-73
2022/01/14 10:55:29;;;;;;;41.33;15.02;;;;;;;;;;5003383;28;20029;-72
2022/01/14 10:57:57;;;;;;;61.53;19.08;;;;;;;;;;5020002;28;20025;-72
2022/01/14 11:00:23;;;;;;;45.28;16.38;;;;;;;;;;5019921;28;20071;-72
2022/01/14 11:02:52;;;;;;;51.15;17.95;;;;;;;;;;5020131;28;20024;-72
2022/01/14 11:05:19;;;;;;;50.58;19.40;;;;;;;;;;5020443;28;20112;-72
2022/01/14 11:07:46;;;;;;;55.80;20.13;;;;;;;;;;5037824;28;20112;-72
2022/01/14 11:10:19;;;;;;;36.55;13.18;;;;;;;;;;5019605;28;20048;-72
2022/01/14 11:12:47;;;;;;;31.15;13.60;;;;;;;;;;5019496;28;20098;-73
2022/01/14 11:15:14;;;;;;;30.80;12.32;;;;;;;;;;5019594;28;20043;-73
2022/01/14 11:17:42;;;;;;;30.02;12.27;;;;;;;;;;5003188;28;20418;-73
2022/01/14 11:20:10;;;;;;;35.20;13.02;;;;;;;;;;5019263;28;20022;-72
2022/01/14 11:25:22;;;;;;;24.58;11.23;;;;;;;;;;5036992;28;20017;-72
2022/01/14 11:27:52;;;;;;;28.08;12.73;;;;;;;;;;5019416;28;20378;-73
2022/01/14 11:30:18;;;;;;;27.50;13.73;;;;;;;;;;5003095;28;20468;-73
2022/01/14 11:32:53;;;;;;;53.85;18.20;;;;;;;;;;5036876;28;20033;-72
2022/01/14 11:35:22;;;;;;;45.95;20.75;;;;;;;;;;5036581;28;20124;-72
2022/01/14 11:37:48;;;;;;;45.92;20.40;;;;;;;;;;5036598;28;20021;-72
2022/01/14 11:40:15;;;;;;;44.97;23.10;;;;;;;;;;5036635;28;20072;-72
2022/01/14 11:42:45;;;;;;;51.40;24.35;;;;;;;;;;5019579;28;20407;-72
2022/01/14 11:45:13;;;;;;;67.10;25.08;;;;;;;;;;5003188;28;20025;-72
2022/01/14 11:50:06;;;;;;;60.97;27.60;;;;;;;;;;5036258;28;20351;-72
2022/01/14 11:52:36;;;;;;;67.35;28.75;;;;;;;;;;5019241;28;20028;-72
2022/01/14 11:55:03;;;;;;;74.20;28.83;;;;;;;;;;5018843;28;20037;-72
2022/01/14 11:57:44;;;;;;;71.40;32.60;;;;;;;;;;5037196;28;20399;-72
2022/01/14 12:00:30;;;;;;;124.18;55.17;;;;;;;;;;5002934;28;20044;-72
2022/01/14 12:03:13;;;;;;;136.80;70.15;;;;;;;;;;5019298;28;20021;-73
2022/01/14 12:05:49;;;;;;;152.80;73.43;;;;;;;;;;5019451;28;20335;-73
2022/01/14 12:08:15;;;;;;;127.80;63.72;;;;;;;;;;5036308;28;20064;-73
2022/01/14 12:11:00;;;;;;;134.13;67.72;;;;;;;;;;5018860;28;20048;-72
2022/01/14 12:13:38;;;;;;;141.30;74.38;;;;;;;;;;5019114;28;20063;-73
2022/01/14 12:16:35;;;;;;;165.50;90.35;;;;;;;;;;5018726;28;20438;-73
2022/01/14 12:19:05;;;;;;;;;;;;;;;;;;5001820;28;20084;-73
2022/01/14 12:21:43;;;;;;;154.45;79.15;;;;;;;;;;5018324;28;19908;-73
2022/01/14 12:24:18;;;;;;;176.93;88.38;;;;;;;;;;5006330;28;20017;-73
2022/01/14 12:26:54;;;;;;;221.25;103.40;;;;;;;;;;5006669;28;20383;-72
2022/01/14 12:29:30;;;;;;;195.68;94.20;;;;;;;;;;5023205;28;20044;-72
2022/01/14 12:32:07;;;;;;;294.00;137.90;;;;;;;;;;5022925;28;20027;-72
2022/01/14 12:34:34;;;;;;;354.85;151.73;;;;;;;;;;5040368;28;20125;-72
2022/01/14 12:37:01;;;;;;;237.60;99.75;;;;;;;;;;5022729;28;20018;-72
2022/01/14 12:39:27;;;;;;;137.38;67.47;;;;;;;;;;5039835;28;20025;-72
2022/01/14 12:41:54;;;;;;;141.57;69.28;;;;;;;;;;5022518;28;20025;-72
2022/01/14 12:44:21;;;;;;;166.27;79.13;;;;;;;;;;5022913;28;20396;-72
2022/01/14 12:49:15;;;;;;;189.18;90.38;;;;;;;;;;5039857;28;20108;-72
2022/01/14 12:51:41;;;;;;;196.82;92.07;;;;;;;;;;5039855;28;20017;-72
2022/01/14 12:54:08;;;;;;;246.85;115.70;;;;;;;;;;5022417;28;20385;-72
2022/01/14 12:56:35;;;;;;;262.58;128.65;;;;;;;;;;5006031;28;20415;-72
2022/01/14 12:59:15;;;;;;;284.17;130.65;;;;;;;;;;5006194;28;20103;-72
2022/01/14 13:01:42;;;;;;;270.50;127.75;;;;;;;;;;5006214;28;20025;-72
2022/01/14 13:04:10;;;;;;;175.68;96.47;;;;;;;;;;5006217;28;20375;-72
2022/01/14 13:06:43;;;;;;;180.30;93.85;;;;;;;;;;5022300;28;20018;-73
2022/01/14 13:09:10;;;;;;;200.40;93.35;;;;;;;;;;5021897;28;20434;-73
2022/01/14 13:11:50;;;;;;;179.35;91.97;;;;;;;;;;5022025;28;20370;-72
2022/01/14 13:14:25;;;;;;;187.45;92.88;;;;;;;;;;5021719;28;20044;-73
2022/01/14 13:16:53;;;;;;;195.95;91.70;;;;;;;;;;5039755;28;20021;-72
2022/01/14 13:19:21;;;;;;;174.68;92.47;;;;;;;;;;5022113;28;20026;-73
2022/01/14 13:21:48;;;;;;;176.68;88.45;;;;;;;;;;5021663;28;20018;-72
2022/01/14 13:24:22;;;;;;;171.07;89.00;;;;;;;;;;5021706;28;20024;-73
2022/01/14 13:27:02;;;;;;;153.32;77.30;;;;;;;;;;5021926;28;20414;-72
2022/01/14 13:30:04;;;;;;;171.48;87.47;;;;;;;;;;5005535;28;20032;-72
2022/01/14 13:32:32;;;;;;;323.80;177.65;;;;;;;;;;4939920;29;20838;-74
2022/01/14 13:35:10;;;;;;;172.68;97.60;;;;;;;;;;4984877;28;20045;-73
2022/01/14 13:37:38;;;;;;;156.38;84.97;;;;;;;;;;5005081;28;20410;-72
2022/01/14 13:40:17;;;;;;;169.05;90.63;;;;;;;;;;5021071;28;20025;-73
2022/01/14 13:43:10;;;;;;;163.10;92.82;;;;;;;;;;5021293;28;20186;-72
2022/01/14 13:45:43;;;;;;;142.07;74.63;;;;;;;;;;5038882;28;20028;-72
2022/01/14 13:48:21;;;;;;;150.70;80.03;;;;;;;;;;5005311;28;20026;-72
2022/01/14 13:50:49;;;;;;;152.77;82.88;;;;;;;;;;5021518;28;20017;-72
2022/01/14 13:53:19;;;;;;;143.18;73.55;;;;;;;;;;4989061;28;20021;-73
2022/01/14 13:55:47;;;;;;;129.95;75.35;;;;;;;;;;5004838;28;20427;-72
2022/01/14 13:58:17;;;;;;;178.13;96.43;;;;;;;;;;5004738;28;20021;-72
2022/01/14 14:00:44;;;;;;;150.45;80.72;;;;;;;;;;5005207;28;20021;-73
2022/01/14 14:03:44;;;;;;;134.05;65.88;;;;;;;;;;5021334;28;20197;-73
2022/01/14 14:06:17;;;;;;;154.95;77.28;;;;;;;;;;5038949;28;20027;-73
2022/01/14 14:17:08;;;;;;;230.38;114.25;;;;;;;;;;5020576;28;20045;-72
2022/01/14 14:19:41;;;;;;;226.77;115.18;;;;;;;;;;5038471;28;20386;-73
2022/01/14 14:22:08;;;;;;;224.50;106.50;;;;;;;;;;5020352;28;20422;-72
2022/01/14 14:24:35;;;;;;;217.57;116.40;;;;;;;;;;5038766;28;20025;-72
2022/01/14 14:27:11;;;;;;;196.82;96.47;;;;;;;;;;5021166;28;20018;-72
2022/01/14 14:29:42;;;;;;;176.00;85.22;;;;;;;;;;5020698;28;20018;-72
2022/01/14 14:32:15;;;;;;;212.65;93.50;;;;;;;;;;4988395;28;20017;-72
2022/01/14 14:34:42;;;;;;;201.02;93.80;;;;;;;;;;5020899;28;20035;-72
2022/01/14 14:37:08;;;;;;;129.77;67.43;;;;;;;;;;5020357;28;20037;-73
2022/01/14 14:39:36;;;;;;;117.47;57.17;;;;;;;;;;5037738;28;20060;-73
2022/01/14 14:42:03;;;;;;;120.32;64.68;;;;;;;;;;5004029;28;20035;-72
2022/01/14 14:44:30;;;;;;;123.32;61.92;;;;;;;;;;5037543;28;20339;-73
2022/01/14 14:46:56;;;;;;;149.57;72.78;;;;;;;;;;5004239;28;20025;-72
2022/01/14 14:49:23;;;;;;;152.02;80.15;;;;;;;;;;5019963;28;20067;-73
2022/01/14 14:51:50;;;;;;;85.90;43.60;;;;;;;;;;5020112;28;20021;-73
2022/01/14 14:54:16;;;;;;;75.32;38.50;;;;;;;;;;5019873;28;20083;-73
2022/01/14 14:56:42;;;;;;;110.22;57.90;;;;;;;;;;5019481;28;20035;-73
2022/01/14 14:59:09;;;;;;;137.07;74.30;;;;;;;;;;5004104;28;20029;-73
2022/01/14 15:01:39;;;;;;;159.95;90.45;;;;;;;;;;5037415;28;20105;-73
2022/01/14 15:04:08;;;;;;;129.07;68.85;;;;;;;;;;5037549;28;20163;-72
2022/01/14 15:06:35;;;;;;;127.43;64.97;;;;;;;;;;5019773;28;20107;-73
2022/01/14 15:09:02;;;;;;;90.25;49.78;;;;;;;;;;5019994;28;20018;-73
2022/01/14 15:11:28;;;;;;;105.15;57.08;;;;;;;;;;5003573;28;20081;-73
2022/01/14 15:13:55;;;;;;;159.38;64.22;;;;;;;;;;5019684;28;20033;-73
2022/01/14 15:16:46;;;;;;;139.30;64.55;;;;;;;;;;5019436;28;20040;-73
2022/01/14 15:19:10;;;;;;;164.27;72.72;;;;;;;;;;5036790;28;20091;-73
2022/01/14 15:21:37;;;;;;;153.05;72.75;;;;;;;;;;5019888;28;20115;-73